Terminal Aerodrome Forecast
Issued by NWS Kansas City/Pleasant Hill, MO

Home | Current Version | Previous Version | Text Only | Print | Product List | Glossary On
Versions: 1 2 3 4 5 6 7 8 9 10 11 12 13 14 15 16 17 18 19 20 21 22 23 24 25 26 27 28 29 30 31 32 33
000
FTUS43 KEAX 270914 AAA
TAFMCI
TAF AMD
KMCI 270914Z 2709/2806 04006KT P6SM -DZ BKN035
      TEMPO 2711/2714 4SM -SHRA BR OVC008
     FM271400 01009KT P6SM OVC015
     FM272300 35008KT P6SM SCT025=

USA.gov is the U.S. government's official web portal to all federal, state and local government web resources and services.